Terminal Aerodrome Forecast
Issued by NWS Wilmington, OH

Current Version | Previous Version | Text Only | Print | Product List | Glossary Off
Versions: 1 2 3 4 5 6 7 8 9 10 11 12 13 14 15 16 17 18 19 20 21 22 23 24 25 26 27 28 29 30

000
FTUS41 KILN 271120
TAFCVG
TAF
KCVG 271120Z 2712/2818 VRB03KT 5SM BR SCT025 OVC100
      TEMPO 2712/2713 2SM BR SCT005 OVC025
     FM271400 VRB03KT P6SM VCSH SCT010 BKN040
      TEMPO 2718/2722 5SM -RA BKN025 OVC040
     FM272200 05004KT 5SM BR VCSH BKN040
     FM280100 09004KT 5SM BR FEW025 BKN100
      TEMPO 2808/2812 1SM BR SCT020
     FM281200 VRB03KT P6SM SCT025=

USA.gov is the U.S. government's official web portal to all federal, state and local government web resources and services.